sensor_id;sensor_type;location;lat;lon;timestamp;pressure;altitude;pressure_sealevel;temperature;humidity
26087;BME280;13851;43.434;28.338;2023-04-20T00:02:20;99224.25;;;12.74;100.00
26087;BME280;13851;43.434;28.338;2023-04-20T00:04:45;98968.63;;;11.30;100.00
26087;BME280;13851;43.434;28.338;2023-04-20T00:07:11;99248.34;;;12.92;100.00
26087;BME280;13851;43.434;28.338;2023-04-20T00:09:37;99206.47;;;12.64;100.00
26087;BME280;13851;43.434;28.338;2023-04-20T00:12:03;99209.25;;;12.51;100.00
26087;BME280;13851;43.434;28.338;2023-04-20T00:14:28;99222.13;;;12.70;100.00
26087;BME280;13851;43.434;28.338;2023-04-20T00:16:54;99203.72;;;12.24;100.00
26087;BME280;13851;43.434;28.338;2023-04-20T00:19:20;99222.97;;;12.64;100.00
26087;BME280;13851;43.434;28.338;2023-04-20T00:21:47;98885.19;;;10.52;100.00
26087;BME280;13851;43.434;28.338;2023-04-20T00:24:13;99171.81;;;12.23;100.00
26087;BME280;13851;43.434;28.338;2023-04-20T00:26:38;99222.13;;;12.57;100.00
26087;BME280;13851;43.434;28.338;2023-04-20T00:29:04;99228.06;;;12.60;100.00
26087;BME280;13851;43.434;28.338;2023-04-20T00:31:30;99228.91;;;12.61;100.00
26087;BME280;13851;43.434;28.338;2023-04-20T00:33:55;98971.53;;;11.02;100.00
26087;BME280;13851;43.434;28.338;2023-04-20T00:36:21;99216.78;;;12.15;100.00
26087;BME280;13851;43.434;28.338;2023-04-20T00:38:46;99206.00;;;12.07;100.00
26087;BME280;13851;43.434;28.338;2023-04-20T00:41:12;99215.38;;;12.39;100.00
26087;BME280;13851;43.434;28.338;2023-04-20T00:43:48;99221.25;;;12.43;100.00
26087;BME280;13851;43.434;28.338;2023-04-20T00:46:14;99204.78;;;12.43;100.00
26087;BME280;13851;43.434;28.338;2023-04-20T00:48:41;98820.16;;;10.12;100.00
26087;BME280;13851;43.434;28.338;2023-04-20T00:51:07;98887.47;;;10.41;100.00
26087;BME280;13851;43.434;28.338;2023-04-20T00:53:33;98758.97;;;9.72;100.00
26087;BME280;13851;43.434;28.338;2023-04-20T00:55:58;99224.22;;;12.35;100.00
26087;BME280;13851;43.434;28.338;2023-04-20T00:58:24;99220.63;;;12.34;100.00
26087;BME280;13851;43.434;28.338;2023-04-20T01:00:50;99117.66;;;11.70;100.00
26087;BME280;13851;43.434;28.338;2023-04-20T01:03:16;99208.34;;;12.17;100.00
26087;BME280;13851;43.434;28.338;2023-04-20T01:05:42;99136.31;;;11.40;100.00
26087;BME280;13851;43.434;28.338;2023-04-20T01:08:07;99229.63;;;11.88;100.00
26087;BME280;13851;43.434;28.338;2023-04-20T01:10:33;98851.88;;;9.94;100.00
26087;BME280;13851;43.434;28.338;2023-04-20T01:12:58;99156.47;;;11.67;100.00
26087;BME280;13851;43.434;28.338;2023-04-20T01:15:24;99200.50;;;12.07;100.00
26087;BME280;13851;43.434;28.338;2023-04-20T01:17:50;99214.03;;;12.09;100.00
26087;BME280;13851;43.434;28.338;2023-04-20T01:20:16;98860.81;;;10.09;100.00
26087;BME280;13851;43.434;28.338;2023-04-20T01:22:49;99184.22;;;11.92;100.00
26087;BME280;13851;43.434;28.338;2023-04-20T01:25:18;99146.38;;;11.75;100.00
26087;BME280;13851;43.434;28.338;2023-04-20T01:27:44;99128.16;;;11.60;100.00
26087;BME280;13851;43.434;28.338;2023-04-20T01:30:10;99272.75;;;12.14;100.00
26087;BME280;13851;43.434;28.338;2023-04-20T01:32:37;99213.19;;;12.08;100.00
26087;BME280;13851;43.434;28.338;2023-04-20T01:35:03;99225.25;;;11.59;100.00
26087;BME280;13851;43.434;28.338;2023-04-20T01:37:28;99219.50;;;11.95;100.00
26087;BME280;13851;43.434;28.338;2023-04-20T01:39:54;99240.63;;;12.02;100.00
26087;BME280;13851;43.434;28.338;2023-04-20T01:42:20;99258.31;;;11.92;100.00
26087;BME280;13851;43.434;28.338;2023-04-20T01:44:46;98813.88;;;9.36;100.00
26087;BME280;13851;43.434;28.338;2023-04-20T01:47:11;99226.41;;;11.85;100.00
26087;BME280;13851;43.434;28.338;2023-04-20T01:49:37;99150.50;;;11.51;100.00
26087;BME280;13851;43.434;28.338;2023-04-20T01:52:02;99094.28;;;11.20;100.00
26087;BME280;13851;43.434;28.338;2023-04-20T01:54:28;99214.22;;;12.07;100.00
26087;BME280;13851;43.434;28.338;2023-04-20T01:56:53;99065.19;;;11.19;100.00
26087;BME280;13851;43.434;28.338;2023-04-20T01:59:18;98849.94;;;9.87;100.00
26087;BME280;13851;43.434;28.338;2023-04-20T02:01:44;99204.31;;;12.00;100.00
26087;BME280;13851;43.434;28.338;2023-04-20T02:04:09;99083.81;;;11.37;100.00
26087;BME280;13851;43.434;28.338;2023-04-20T02:06:35;99204.75;;;12.10;100.00
26087;BME280;13851;43.434;28.338;2023-04-20T02:09:00;99206.47;;;12.24;100.00
26087;BME280;13851;43.434;28.338;2023-04-20T02:11:26;99265.38;;;12.15;100.00
26087;BME280;13851;43.434;28.338;2023-04-20T02:13:51;99223.63;;;11.78;100.00
26087;BME280;13851;43.434;28.338;2023-04-20T02:16:17;98858.47;;;10.06;100.00
26087;BME280;13851;43.434;28.338;2023-04-20T02:18:46;99140.66;;;11.76;100.00
26087;BME280;13851;43.434;28.338;2023-04-20T02:21:11;98990.41;;;10.71;100.00
26087;BME280;13851;43.434;28.338;2023-04-20T02:23:37;98907.22;;;10.24;100.00
26087;BME280;13851;43.434;28.338;2023-04-20T02:26:03;99211.47;;;12.01;100.00
26087;BME280;13851;43.434;28.338;2023-04-20T02:28:28;99244.88;;;12.11;100.00
26087;BME280;13851;43.434;28.338;2023-04-20T02:30:54;99195.00;;;12.07;100.00
26087;BME280;13851;43.434;28.338;2023-04-20T02:33:19;99132.50;;;11.83;100.00
26087;BME280;13851;43.434;28.338;2023-04-20T02:35:46;99208.16;;;12.25;100.00
26087;BME280;13851;43.434;28.338;2023-04-20T02:38:11;99212.19;;;12.29;100.00
26087;BME280;13851;43.434;28.338;2023-04-20T02:40:37;99259.72;;;12.30;100.00
26087;BME280;13851;43.434;28.338;2023-04-20T02:43:02;99140.22;;;11.66;100.00
26087;BME280;13851;43.434;28.338;2023-04-20T02:45:28;98837.63;;;10.05;100.00
26087;BME280;13851;43.434;28.338;2023-04-20T02:47:55;98832.53;;;9.95;100.00
26087;BME280;13851;43.434;28.338;2023-04-20T02:50:21;99262.19;;;12.11;100.00
26087;BME280;13851;43.434;28.338;2023-04-20T02:52:47;98590.75;;;8.39;100.00
26087;BME280;13851;43.434;28.338;2023-04-20T02:55:12;99167.75;;;11.86;100.00
26087;BME280;13851;43.434;28.338;2023-04-20T02:57:38;98872.16;;;10.12;100.00
26087;BME280;13851;43.434;28.338;2023-04-20T03:00:04;98823.25;;;9.89;100.00
26087;BME280;13851;43.434;28.338;2023-04-20T03:02:32;99202.19;;;12.02;100.00
26087;BME280;13851;43.434;28.338;2023-04-20T03:04:58;99171.22;;;11.66;100.00
26087;BME280;13851;43.434;28.338;2023-04-20T03:07:23;99203.47;;;12.06;100.00
26087;BME280;13851;43.434;28.338;2023-04-20T03:09:49;99175.28;;;11.77;100.00
26087;BME280;13851;43.434;28.338;2023-04-20T03:12:14;98826.31;;;9.73;100.00
26087;BME280;13851;43.434;28.338;2023-04-20T03:14:40;99195.75;;;11.81;100.00
26087;BME280;13851;43.434;28.338;2023-04-20T03:17:05;99199.56;;;11.80;100.00
26087;BME280;13851;43.434;28.338;2023-04-20T03:19:31;99174.66;;;11.75;100.00
26087;BME280;13851;43.434;28.338;2023-04-20T03:21:56;99178.00;;;11.77;100.00
26087;BME280;13851;43.434;28.338;2023-04-20T03:24:22;98895.53;;;10.08;100.00
26087;BME280;13851;43.434;28.338;2023-04-20T03:26:48;99242.00;;;11.78;100.00
26087;BME280;13851;43.434;28.338;2023-04-20T03:29:13;98843.34;;;9.69;100.00
26087;BME280;13851;43.434;28.338;2023-04-20T03:31:39;99141.25;;;11.52;100.00
26087;BME280;13851;43.434;28.338;2023-04-20T03:34:04;99198.13;;;11.84;100.00
26087;BME280;13851;43.434;28.338;2023-04-20T03:36:30;99189.06;;;11.84;100.00
26087;BME280;13851;43.434;28.338;2023-04-20T03:38:56;98841.00;;;9.72;100.00
26087;BME280;13851;43.434;28.338;2023-04-20T03:41:22;99235.44;;;11.79;100.00
26087;BME280;13851;43.434;28.338;2023-04-20T03:43:47;99175.69;;;11.67;100.00
26087;BME280;13851;43.434;28.338;2023-04-20T03:46:13;98896.50;;;9.94;100.00
26087;BME280;13851;43.434;28.338;2023-04-20T03:48:38;99194.00;;;11.60;100.00
26087;BME280;13851;43.434;28.338;2023-04-20T03:51:04;99178.34;;;12.22;100.00
26087;BME280;13851;43.434;28.338;2023-04-20T03:53:30;99105.69;;;12.05;100.00
26087;BME280;13851;43.434;28.338;2023-04-20T03:55:56;99166.34;;;12.36;100.00
26087;BME280;13851;43.434;28.338;2023-04-20T03:58:21;99080.16;;;12.04;100.00
26087;BME280;13851;43.434;28.338;2023-04-20T04:00:47;99202.69;;;12.52;100.00
26087;BME280;13851;43.434;28.338;2023-04-20T04:03:13;99195.91;;;12.74;100.00
26087;BME280;13851;43.434;28.338;2023-04-20T04:05:39;99143.50;;;12.42;100.00
26087;BME280;13851;43.434;28.338;2023-04-20T04:08:06;99201.63;;;12.53;100.00
26087;BME280;13851;43.434;28.338;2023-04-20T04:10:31;98820.72;;;9.88;100.00
26087;BME280;13851;43.434;28.338;2023-04-20T04:12:57;99194.44;;;12.18;100.00
26087;BME280;13851;43.434;28.338;2023-04-20T04:15:23;99193.31;;;12.13;100.00
26087;BME280;13851;43.434;28.338;2023-04-20T04:17:48;99138.81;;;11.83;100.00
26087;BME280;13851;43.434;28.338;2023-04-20T04:20:14;99161.63;;;11.90;100.00
26087;BME280;13851;43.434;28.338;2023-04-20T04:22:40;99185.47;;;11.90;100.00
26087;BME280;13851;43.434;28.338;2023-04-20T04:25:06;98742.34;;;9.26;100.00
26087;BME280;13851;43.434;28.338;2023-04-20T04:27:32;99111.25;;;11.43;100.00
26087;BME280;13851;43.434;28.338;2023-04-20T04:30:05;98812.81;;;9.65;100.00
26087;BME280;13851;43.434;28.338;2023-04-20T04:32:31;99161.13;;;11.67;100.00
26087;BME280;13851;43.434;28.338;2023-04-20T04:34:58;99156.53;;;11.87;100.00
26087;BME280;13851;43.434;28.338;2023-04-20T04:37:25;99090.59;;;11.48;100.00
26087;BME280;13851;43.434;28.338;2023-04-20T04:39:51;99198.41;;;12.09;100.00
26087;BME280;13851;43.434;28.338;2023-04-20T04:42:16;99194.59;;;12.04;100.00
26087;BME280;13851;43.434;28.338;2023-04-20T04:44:42;99154.81;;;11.73;100.00
26087;BME280;13851;43.434;28.338;2023-04-20T04:47:08;99176.00;;;12.12;100.00
26087;BME280;13851;43.434;28.338;2023-04-20T04:49:33;98810.28;;;10.11;100.00
26087;BME280;13851;43.434;28.338;2023-04-20T04:52:00;99177.75;;;12.60;100.00
26087;BME280;13851;43.434;28.338;2023-04-20T04:54:26;99154.09;;;12.45;100.00
26087;BME280;13851;43.434;28.338;2023-04-20T04:56:52;99166.53;;;12.48;100.00
26087;BME280;13851;43.434;28.338;2023-04-20T04:59:17;98817.75;;;10.37;100.00
26087;BME280;13851;43.434;28.338;2023-04-20T05:01:43;99206.47;;;12.57;100.00
26087;BME280;13851;43.434;28.338;2023-04-20T05:04:08;99206.03;;;12.54;100.00
26087;BME280;13851;43.434;28.338;2023-04-20T05:06:34;99196.16;;;12.59;100.00
26087;BME280;13851;43.434;28.338;2023-04-20T05:08:59;99213.25;;;12.41;100.00
26087;BME280;13851;43.434;28.338;2023-04-20T05:11:25;98844.63;;;10.14;100.00
26087;BME280;13851;43.434;28.338;2023-04-20T05:13:50;99215.78;;;12.36;100.00
26087;BME280;13851;43.434;28.338;2023-04-20T05:16:16;99202.66;;;12.25;100.00
26087;BME280;13851;43.434;28.338;2023-04-20T05:18:41;99152.31;;;11.85;100.00
26087;BME280;13851;43.434;28.338;2023-04-20T05:21:07;98926.22;;;10.38;100.00
26087;BME280;13851;43.434;28.338;2023-04-20T05:23:32;99083.59;;;11.38;100.00
26087;BME280;13851;43.434;28.338;2023-04-20T05:25:58;99156.03;;;11.64;100.00
26087;BME280;13851;43.434;28.338;2023-04-20T05:28:23;99252.47;;;12.09;100.00
26087;BME280;13851;43.434;28.338;2023-04-20T05:30:49;99169.59;;;11.79;100.00
26087;BME280;13851;43.434;28.338;2023-04-20T05:33:15;99091.00;;;11.44;100.00
26087;BME280;13851;43.434;28.338;2023-04-20T05:35:40;99247.00;;;12.15;100.00
26087;BME280;13851;43.434;28.338;2023-04-20T05:38:06;99185.75;;;12.08;100.00
26087;BME280;13851;43.434;28.338;2023-04-20T05:40:32;98826.06;;;10.09;100.00
26087;BME280;13851;43.434;28.338;2023-04-20T05:42:59;98815.13;;;10.16;100.00
26087;BME280;13851;43.434;28.338;2023-04-20T05:45:25;99154.47;;;12.16;100.00
26087;BME280;13851;43.434;28.338;2023-04-20T05:47:51;98880.34;;;10.54;100.00
26087;BME280;13851;43.434;28.338;2023-04-20T05:50:18;99258.06;;;12.62;100.00
26087;BME280;13851;43.434;28.338;2023-04-20T05:52:43;98846.63;;;10.47;100.00
26087;BME280;13851;43.434;28.338;2023-04-20T05:55:09;99248.13;;;12.81;100.00
26087;BME280;13851;43.434;28.338;2023-04-20T05:57:34;99194.25;;;12.60;100.00
26087;BME280;13851;43.434;28.338;2023-04-20T06:00:10;99203.09;;;12.75;100.00
26087;BME280;13851;43.434;28.338;2023-04-20T06:02:36;99116.06;;;12.16;100.00
26087;BME280;13851;43.434;28.338;2023-04-20T06:05:02;99186.19;;;12.78;100.00
26087;BME280;13851;43.434;28.338;2023-04-20T06:07:28;98844.19;;;10.78;100.00
26087;BME280;13851;43.434;28.338;2023-04-20T06:09:53;99010.03;;;11.75;100.00
26087;BME280;13851;43.434;28.338;2023-04-20T06:12:19;98837.41;;;10.67;100.00
26087;BME280;13851;43.434;28.338;2023-04-20T06:14:44;99208.13;;;13.05;100.00
26087;BME280;13851;43.434;28.338;2023-04-20T06:17:10;99175.41;;;12.77;100.00
26087;BME280;13851;43.434;28.338;2023-04-20T06:19:35;99205.19;;;12.93;100.00
26087;BME280;13851;43.434;28.338;2023-04-20T06:22:07;98965.28;;;11.48;100.00
26087;BME280;13851;43.434;28.338;2023-04-20T06:24:34;99219.13;;;13.24;100.00
26087;BME280;13851;43.434;28.338;2023-04-20T06:27:00;99186.56;;;13.01;100.00
26087;BME280;13851;43.434;28.338;2023-04-20T06:29:27;99239.22;;;13.32;100.00
26087;BME280;13851;43.434;28.338;2023-04-20T06:31:53;98879.84;;;11.18;100.00
26087;BME280;13851;43.434;28.338;2023-04-20T06:34:19;99248.06;;;13.47;100.00
26087;BME280;13851;43.434;28.338;2023-04-20T06:36:44;99241.50;;;13.48;100.00
26087;BME280;13851;43.434;28.338;2023-04-20T06:39:10;99244.22;;;13.55;100.00
26087;BME280;13851;43.434;28.338;2023-04-20T06:41:38;99237.22;;;13.59;100.00
26087;BME280;13851;43.434;28.338;2023-04-20T06:44:04;99197.53;;;13.28;100.00
26087;BME280;13851;43.434;28.338;2023-04-20T06:46:30;99256.28;;;13.60;100.00
26087;BME280;13851;43.434;28.338;2023-04-20T06:48:56;98903.66;;;11.70;100.00
26087;BME280;13851;43.434;28.338;2023-04-20T06:51:23;99252.41;;;13.74;100.00
26087;BME280;13851;43.434;28.338;2023-04-20T06:53:49;99257.91;;;13.74;100.00
26087;BME280;13851;43.434;28.338;2023-04-20T06:56:14;99232.59;;;13.52;100.00
26087;BME280;13851;43.434;28.338;2023-04-20T06:58:40;99254.91;;;13.89;100.00
26087;BME280;13851;43.434;28.338;2023-04-20T07:01:05;99228.22;;;13.90;100.00
26087;BME280;13851;43.434;28.338;2023-04-20T07:03:31;99252.75;;;13.91;100.00
26087;BME280;13851;43.434;28.338;2023-04-20T07:05:56;99234.28;;;13.53;100.00
26087;BME280;13851;43.434;28.338;2023-04-20T07:08:22;99288.56;;;13.91;100.00
26087;BME280;13851;43.434;28.338;2023-04-20T07:10:47;99222.22;;;13.99;100.00
26087;BME280;13851;43.434;28.338;2023-04-20T07:13:13;99254.72;;;14.22;100.00
26087;BME280;13851;43.434;28.338;2023-04-20T07:15:38;99264.84;;;14.35;100.00
26087;BME280;13851;43.434;28.338;2023-04-20T07:18:04;99059.59;;;13.31;100.00
26087;BME280;13851;43.434;28.338;2023-04-20T07:20:30;98899.31;;;12.34;100.00
26087;BME280;13851;43.434;28.338;2023-04-20T07:22:56;98863.50;;;12.03;100.00
26087;BME280;13851;43.434;28.338;2023-04-20T07:25:21;99209.97;;;13.95;100.00
26087;BME280;13851;43.434;28.338;2023-04-20T07:27:47;99276.75;;;14.29;100.00
26087;BME280;13851;43.434;28.338;2023-04-20T07:30:13;99246.31;;;14.11;100.00
26087;BME280;13851;43.434;28.338;2023-04-20T07:32:39;99269.09;;;14.31;100.00
26087;BME280;13851;43.434;28.338;2023-04-20T07:35:06;98927.22;;;12.25;100.00
26087;BME280;13851;43.434;28.338;2023-04-20T07:37:32;99282.78;;;14.13;100.00
26087;BME280;13851;43.434;28.338;2023-04-20T07:39:58;99236.31;;;13.78;100.00
26087;BME280;13851;43.434;28.338;2023-04-20T07:42:23;99264.41;;;13.93;100.00
26087;BME280;13851;43.434;28.338;2023-04-20T07:44:49;99260.06;;;13.66;100.00
26087;BME280;13851;43.434;28.338;2023-04-20T07:47:15;99265.53;;;13.79;100.00
26087;BME280;13851;43.434;28.338;2023-04-20T07:49:41;99203.22;;;13.40;100.00
26087;BME280;13851;43.434;28.338;2023-04-20T07:52:07;99270.16;;;13.85;100.00
26087;BME280;13851;43.434;28.338;2023-04-20T07:54:33;99209.09;;;13.57;100.00
26087;BME280;13851;43.434;28.338;2023-04-20T07:56:59;99033.91;;;12.92;100.00
26087;BME280;13851;43.434;28.338;2023-04-20T07:59:25;99350.13;;;14.62;100.00
26087;BME280;13851;43.434;28.338;2023-04-20T08:01:51;99259.56;;;14.65;100.00
26087;BME280;13851;43.434;28.338;2023-04-20T08:04:17;98907.28;;;12.49;100.00
26087;BME280;13851;43.434;28.338;2023-04-20T08:06:42;99219.09;;;14.27;100.00
26087;BME280;13851;43.434;28.338;2023-04-20T08:09:08;99261.44;;;13.95;100.00
26087;BME280;13851;43.434;28.338;2023-04-20T08:11:34;99240.00;;;14.03;100.00
26087;BME280;13851;43.434;28.338;2023-04-20T08:13:59;98927.72;;;11.95;100.00
26087;BME280;13851;43.434;28.338;2023-04-20T08:16:25;99063.09;;;12.93;100.00
26087;BME280;13851;43.434;28.338;2023-04-20T08:18:51;98839.13;;;11.55;100.00
26087;BME280;13851;43.434;28.338;2023-04-20T08:21:16;99264.03;;;14.28;100.00
26087;BME280;13851;43.434;28.338;2023-04-20T08:23:42;99256.78;;;14.34;100.00
26087;BME280;13851;43.434;28.338;2023-04-20T08:26:13;98905.66;;;12.28;100.00
26087;BME280;13851;43.434;28.338;2023-04-20T08:28:38;99256.28;;;14.50;100.00
26087;BME280;13851;43.434;28.338;2023-04-20T08:31:04;99266.47;;;14.49;100.00
26087;BME280;13851;43.434;28.338;2023-04-20T08:33:29;99257.34;;;14.80;100.00
26087;BME280;13851;43.434;28.338;2023-04-20T08:35:55;99213.50;;;14.41;100.00
26087;BME280;13851;43.434;28.338;2023-04-20T08:38:20;99189.25;;;13.86;100.00
26087;BME280;13851;43.434;28.338;2023-04-20T08:40:46;99165.38;;;14.12;100.00
26087;BME280;13851;43.434;28.338;2023-04-20T08:43:12;98856.41;;;12.33;100.00
26087;BME280;13851;43.434;28.338;2023-04-20T08:45:38;99271.22;;;14.92;100.00
26087;BME280;13851;43.434;28.338;2023-04-20T08:48:06;99266.72;;;14.98;100.00
26087;BME280;13851;43.434;28.338;2023-04-20T08:50:35;99268.75;;;14.84;100.00
26087;BME280;13851;43.434;28.338;2023-04-20T08:53:03;99232.56;;;14.42;100.00
26087;BME280;13851;43.434;28.338;2023-04-20T08:55:28;99325.06;;;14.70;100.00
26087;BME280;13851;43.434;28.338;2023-04-20T08:57:54;99279.44;;;14.74;100.00
26087;BME280;13851;43.434;28.338;2023-04-20T09:00:19;99154.09;;;13.88;100.00
26087;BME280;13851;43.434;28.338;2023-04-20T09:02:53;99205.38;;;14.52;100.00
26087;BME280;13851;43.434;28.338;2023-04-20T09:05:29;99257.22;;;14.94;100.00
26087;BME280;13851;43.434;28.338;2023-04-20T09:07:58;98895.28;;;12.82;100.00
26087;BME280;13851;43.434;28.338;2023-04-20T09:10:25;99266.28;;;15.26;100.00
26087;BME280;13851;43.434;28.338;2023-04-20T09:12:51;99257.09;;;15.50;100.00
26087;BME280;13851;43.434;28.338;2023-04-20T09:15:30;99281.00;;;15.63;100.00
26087;BME280;13851;43.434;28.338;2023-04-20T09:17:56;98928.59;;;13.62;100.00
26087;BME280;13851;43.434;28.338;2023-04-20T09:20:27;99289.03;;;15.83;100.00
26087;BME280;13851;43.434;28.338;2023-04-20T09:22:52;99239.31;;;15.46;100.00
26087;BME280;13851;43.434;28.338;2023-04-20T09:25:18;99248.63;;;15.27;100.00
26087;BME280;13851;43.434;28.338;2023-04-20T09:27:59;99001.97;;;13.43;100.00
26087;BME280;13851;43.434;28.338;2023-04-20T09:30:38;99318.53;;;15.21;100.00
26087;BME280;13851;43.434;28.338;2023-04-20T09:33:04;99311.13;;;15.40;100.00
26087;BME280;13851;43.434;28.338;2023-04-20T09:35:32;99219.03;;;15.16;100.00
26087;BME280;13851;43.434;28.338;2023-04-20T09:37:58;99278.00;;;15.83;100.00
26087;BME280;13851;43.434;28.338;2023-04-20T09:40:24;99244.31;;;15.93;100.00
26087;BME280;13851;43.434;28.338;2023-04-20T09:42:52;99198.13;;;15.81;100.00
26087;BME280;13851;43.434;28.338;2023-04-20T09:45:18;99155.34;;;15.54;100.00
26087;BME280;13851;43.434;28.338;2023-04-20T09:47:46;99274.50;;;16.24;100.00
26087;BME280;13851;43.434;28.338;2023-04-20T09:50:12;99261.94;;;16.40;100.00
26087;BME280;13851;43.434;28.338;2023-04-20T09:52:38;99264.66;;;16.58;100.00
26087;BME280;13851;43.434;28.338;2023-04-20T09:55:04;99259.22;;;16.52;100.00
26087;BME280;13851;43.434;28.338;2023-04-20T09:57:33;99031.00;;;14.82;100.00
26087;BME280;13851;43.434;28.338;2023-04-20T10:00:00;99268.97;;;16.24;100.00
26087;BME280;13851;43.434;28.338;2023-04-20T10:02:26;99195.16;;;15.65;100.00
26087;BME280;13851;43.434;28.338;2023-04-20T10:04:56;99205.41;;;15.76;100.00
26087;BME280;13851;43.434;28.338;2023-04-20T10:07:26;99277.97;;;16.01;100.00
26087;BME280;13851;43.434;28.338;2023-04-20T10:12:32;99194.72;;;15.68;100.00
26087;BME280;13851;43.434;28.338;2023-04-20T10:14:57;99271.22;;;16.16;100.00
26087;BME280;13851;43.434;28.338;2023-04-20T10:17:31;99257.81;;;15.82;100.00
26087;BME280;13851;43.434;28.338;2023-04-20T10:19:59;99272.78;;;15.93;100.00
26087;BME280;13851;43.434;28.338;2023-04-20T10:22:28;99206.13;;;15.09;100.00
26087;BME280;13851;43.434;28.338;2023-04-20T10:24:58;99313.69;;;15.41;100.00
26087;BME280;13851;43.434;28.338;2023-04-20T10:27:24;98813.25;;;12.79;100.00
26087;BME280;13851;43.434;28.338;2023-04-20T10:29:50;98933.78;;;13.45;100.00
26087;BME280;13851;43.434;28.338;2023-04-20T10:32:26;99257.94;;;15.51;100.00
26087;BME280;13851;43.434;28.338;2023-04-20T10:35:09;99273.09;;;15.67;100.00
26087;BME280;13851;43.434;28.338;2023-04-20T10:37:49;98998.28;;;14.05;100.00
26087;BME280;13851;43.434;28.338;2023-04-20T10:40:16;99227.78;;;15.49;100.00
26087;BME280;13851;43.434;28.338;2023-04-20T10:42:48;99261.22;;;15.59;100.00
26087;BME280;13851;43.434;28.338;2023-04-20T10:45:14;99195.56;;;15.06;100.00
26087;BME280;13851;43.434;28.338;2023-04-20T10:47:40;99233.69;;;15.16;100.00
26087;BME280;13851;43.434;28.338;2023-04-20T10:50:10;99249.72;;;15.26;100.00
26087;BME280;13851;43.434;28.338;2023-04-20T10:52:38;99003.84;;;13.74;100.00
26087;BME280;13851;43.434;28.338;2023-04-20T10:55:05;99285.50;;;15.32;100.00
26087;BME280;13851;43.434;28.338;2023-04-20T10:57:32;99276.66;;;15.05;100.00
26087;BME280;13851;43.434;28.338;2023-04-20T10:59:58;98897.38;;;12.41;100.00
26087;BME280;13851;43.434;28.338;2023-04-20T11:02:24;99265.34;;;14.19;100.00
26087;BME280;13851;43.434;28.338;2023-04-20T11:04:50;99220.88;;;14.15;100.00
26087;BME280;13851;43.434;28.338;2023-04-20T11:07:17;99164.75;;;13.78;100.00
26087;BME280;13851;43.434;28.338;2023-04-20T11:09:44;99276.00;;;14.78;100.00
26087;BME280;13851;43.434;28.338;2023-04-20T11:12:10;98927.47;;;12.68;100.00
26087;BME280;13851;43.434;28.338;2023-04-20T11:14:51;99307.34;;;14.52;100.00
26087;BME280;13851;43.434;28.338;2023-04-20T11:17:17;99273.84;;;14.55;100.00
26087;BME280;13851;43.434;28.338;2023-04-20T11:19:43;98903.94;;;12.40;100.00
26087;BME280;13851;43.434;28.338;2023-04-20T11:22:19;98875.06;;;12.25;100.00
26087;BME280;13851;43.434;28.338;2023-04-20T11:24:46;99252.16;;;14.27;100.00
26087;BME280;13851;43.434;28.338;2023-04-20T11:27:18;99176.13;;;13.88;100.00
26087;BME280;13851;43.434;28.338;2023-04-20T11:29:54;98944.03;;;12.55;100.00
26087;BME280;13851;43.434;28.338;2023-04-20T11:32:20;99237.19;;;14.48;100.00
26087;BME280;13851;43.434;28.338;2023-04-20T11:34:46;99264.75;;;14.55;100.00
26087;BME280;13851;43.434;28.338;2023-04-20T11:37:22;99247.94;;;14.25;100.00
26087;BME280;13851;43.434;28.338;2023-04-20T11:39:58;99229.63;;;14.69;100.00
26087;BME280;13851;43.434;28.338;2023-04-20T11:42:23;99211.81;;;14.71;100.00
26087;BME280;13851;43.434;28.338;2023-04-20T11:44:49;99263.28;;;15.02;100.00
26087;BME280;13851;43.434;28.338;2023-04-20T11:47:14;99266.94;;;15.21;100.00
26087;BME280;13851;43.434;28.338;2023-04-20T11:49:40;99322.06;;;15.03;100.00
26087;BME280;13851;43.434;28.338;2023-04-20T11:52:05;99261.09;;;14.86;100.00
26087;BME280;13851;43.434;28.338;2023-04-20T11:54:31;99251.59;;;15.07;100.00
26087;BME280;13851;43.434;28.338;2023-04-20T11:56:59;99212.03;;;14.70;100.00
26087;BME280;13851;43.434;28.338;2023-04-20T11:59:25;98895.28;;;12.82;100.00
26087;BME280;13851;43.434;28.338;2023-04-20T12:01:50;99272.81;;;15.06;100.00
26087;BME280;13851;43.434;28.338;2023-04-20T12:04:16;99252.63;;;15.31;100.00
26087;BME280;13851;43.434;28.338;2023-04-20T12:06:42;98967.19;;;13.17;100.00
26087;BME280;13851;43.434;28.338;2023-04-20T12:09:08;99202.88;;;14.44;100.00
26087;BME280;13851;43.434;28.338;2023-04-20T12:11:33;99254.97;;;14.59;100.00
26087;BME280;13851;43.434;28.338;2023-04-20T12:13:59;99280.97;;;14.70;100.00
26087;BME280;13851;43.434;28.338;2023-04-20T12:16:24;99236.13;;;14.81;100.00
26087;BME280;13851;43.434;28.338;2023-04-20T12:18:50;99265.47;;;15.19;100.00
26087;BME280;13851;43.434;28.338;2023-04-20T12:21:16;99262.69;;;15.44;100.00
26087;BME280;13851;43.434;28.338;2023-04-20T12:23:41;99201.03;;;14.88;100.00
26087;BME280;13851;43.434;28.338;2023-04-20T12:26:08;99259.53;;;15.40;100.00
26087;BME280;13851;43.434;28.338;2023-04-20T12:28:34;99188.59;;;14.79;100.00
26087;BME280;13851;43.434;28.338;2023-04-20T12:31:00;99252.03;;;15.04;100.00
26087;BME280;13851;43.434;28.338;2023-04-20T12:33:26;99150.16;;;14.66;100.00
26087;BME280;13851;43.434;28.338;2023-04-20T12:35:52;99260.94;;;15.06;100.00
26087;BME280;13851;43.434;28.338;2023-04-20T12:38:17;99249.09;;;14.99;100.00
26087;BME280;13851;43.434;28.338;2023-04-20T12:40:43;99128.06;;;14.41;100.00